createdAt,value
2022-08-16T00:01:33.887Z,15.77
2022-08-16T00:04:05.238Z,16.42
2022-08-16T00:06:34.167Z,16.27
2022-08-16T00:09:07.181Z,15.77
2022-08-16T00:11:37.167Z,17.15
2022-08-16T00:14:10.040Z,16.27
2022-08-16T00:17:06.637Z,16.20
2022-08-16T00:19:41.822Z,16.95
2022-08-16T00:22:13.759Z,16.27
2022-08-16T00:24:46.950Z,16.95
2022-08-16T00:27:19.215Z,17.42
2022-08-16T00:29:48.420Z,17.80
2022-08-16T00:32:32.794Z,17.00
2022-08-16T00:35:01.925Z,17.58
2022-08-16T00:37:56.658Z,18.40
2022-08-16T00:40:33.361Z,19.52
2022-08-16T00:43:05.334Z,17.27
2022-08-16T00:45:57.920Z,16.65
2022-08-16T00:48:31.329Z,17.77
2022-08-16T00:51:02.070Z,17.33
2022-08-16T00:53:31.084Z,16.52
2022-08-16T00:56:05.695Z,17.40
2022-08-16T00:58:35.786Z,18.40
2022-08-16T01:01:08.517Z,18.20
2022-08-16T01:03:41.510Z,17.25
2022-08-16T01:06:40.424Z,18.35
2022-08-16T01:09:00.532Z,17.05
2022-08-16T01:11:30.722Z,17.27
2022-08-16T01:16:29.666Z,18.20
2022-08-16T01:19:02.710Z,17.30
2022-08-16T01:21:39.849Z,16.48
2022-08-16T01:24:52.180Z,17.08
2022-08-16T01:27:12.343Z,17.58
2022-08-16T01:29:58.113Z,17.67
2022-08-16T01:32:33.472Z,16.90
2022-08-16T01:35:07.261Z,16.70
2022-08-16T01:37:42.343Z,16.08
2022-08-16T01:40:15.882Z,15.73
2022-08-16T01:42:47.967Z,17.23
2022-08-16T01:45:19.603Z,16.23
2022-08-16T01:47:51.831Z,17.80
2022-08-16T01:50:42.108Z,16.00
2022-08-16T01:53:13.807Z,16.10
2022-08-16T01:56:24.732Z,17.40
2022-08-16T01:58:57.780Z,16.92
2022-08-16T02:01:28.656Z,16.38
2022-08-16T02:04:10.212Z,17.15
2022-08-16T02:06:46.117Z,17.25
2022-08-16T02:09:19.978Z,17.05
2022-08-16T02:11:55.188Z,16.60
2022-08-16T02:14:26.397Z,15.35
2022-08-16T02:16:56.799Z,16.17
2022-08-16T02:19:59.506Z,16.25
2022-08-16T02:22:33.456Z,16.27
2022-08-16T02:25:10.112Z,16.40
2022-08-16T02:27:41.413Z,15.88
2022-08-16T02:30:36.540Z,17.88
2022-08-16T02:33:05.605Z,16.45
2022-08-16T02:35:53.970Z,16.55
2022-08-16T02:38:27.865Z,16.65
2022-08-16T02:40:56.597Z,16.80
2022-08-16T02:43:28.340Z,18.60
2022-08-16T02:46:00.388Z,17.75
2022-08-16T02:48:32.197Z,16.83
2022-08-16T02:51:10.214Z,16.95
2022-08-16T02:53:44.665Z,17.90
2022-08-16T02:56:15.558Z,16.48
2022-08-16T02:58:47.913Z,16.77
2022-08-16T03:01:36.989Z,17.27
2022-08-16T03:04:29.102Z,17.27
2022-08-16T03:07:10.502Z,15.70
2022-08-16T03:09:44.248Z,17.73
2022-08-16T03:12:16.538Z,16.77
2022-08-16T03:14:49.006Z,16.50
2022-08-16T03:17:21.922Z,16.02
2022-08-16T03:20:00.018Z,15.82
2022-08-16T03:22:35.467Z,16.15
2022-08-16T03:25:11.601Z,16.02
2022-08-16T03:27:44.484Z,16.42
2022-08-16T03:30:22.451Z,16.27
2022-08-16T03:32:54.917Z,16.05
2022-08-16T03:35:33.280Z,15.50
2022-08-16T03:38:33.620Z,15.73
2022-08-16T03:41:25.429Z,16.30
2022-08-16T03:44:00.832Z,14.50
2022-08-16T03:46:47.364Z,15.05
2022-08-16T03:49:23.656Z,15.15
2022-08-16T03:52:06.056Z,16.52
2022-08-16T03:54:36.889Z,16.65
2022-08-16T03:57:06.930Z,15.90
2022-08-16T03:59:43.573Z,15.45
2022-08-16T04:02:22.768Z,16.33
2022-08-16T04:05:10.102Z,15.93
2022-08-16T04:07:47.372Z,16.13
2022-08-16T04:10:36.824Z,15.88
2022-08-16T04:13:20.168Z,15.40
2022-08-16T04:15:49.725Z,14.82
2022-08-16T04:18:27.692Z,16.05
2022-08-16T04:20:59.630Z,15.25
2022-08-16T04:23:29.461Z,16.02
2022-08-16T04:26:01.833Z,15.65
2022-08-16T04:28:53.516Z,15.70
2022-08-16T04:31:22.085Z,15.48
2022-08-16T04:33:53.287Z,15.93
2022-08-16T04:36:24.427Z,15.68
2022-08-16T04:38:53.981Z,15.35
2022-08-16T04:41:32.917Z,15.43
2022-08-16T04:44:32.745Z,15.10
2022-08-16T04:47:02.815Z,15.07
2022-08-16T04:49:38.716Z,15.00
2022-08-16T04:52:34.084Z,15.05
2022-08-16T04:55:07.512Z,14.90
2022-08-16T04:57:38.254Z,14.85
2022-08-16T05:00:31.711Z,13.90
2022-08-16T05:03:07.300Z,14.48
2022-08-16T05:05:45.266Z,14.07
2022-08-16T05:08:28.756Z,13.52
2022-08-16T05:11:08.302Z,14.05
2022-08-16T05:13:41.050Z,14.18
2022-08-16T05:16:21.395Z,14.90
2022-08-16T05:18:58.343Z,13.90
2022-08-16T05:21:38.555Z,13.20
2022-08-16T05:24:10.112Z,13.93
2022-08-16T05:26:43.186Z,14.10
2022-08-16T05:29:15.158Z,14.40
2022-08-16T05:31:57.866Z,13.60
2022-08-16T05:34:26.513Z,14.02
2022-08-16T05:39:37.722Z,13.98
2022-08-16T05:42:10.302Z,13.93
2022-08-16T05:44:41.611Z,13.38
2022-08-16T05:47:15.300Z,13.05
2022-08-16T05:49:46.049Z,12.60
2022-08-16T05:52:21.572Z,12.90
2022-08-16T05:54:58.507Z,13.20
2022-08-16T05:57:35.474Z,13.25
2022-08-16T06:00:09.348Z,12.82
2022-08-16T06:02:41.570Z,11.98
2022-08-16T06:05:36.276Z,12.65
2022-08-16T06:08:32.079Z,12.05
2022-08-16T06:11:10.445Z,11.48
2022-08-16T06:13:43.512Z,12.30
2022-08-16T06:16:18.501Z,11.35
2022-08-16T06:18:50.640Z,12.68
2022-08-16T06:21:23.616Z,12.20
2022-08-16T06:23:58.165Z,12.82
2022-08-16T06:26:34.912Z,12.07
2022-08-16T06:29:08.142Z,11.50
2022-08-16T06:31:48.910Z,11.88
2022-08-16T06:34:40.783Z,12.32
2022-08-16T06:37:12.189Z,12.00
2022-08-16T06:42:50.233Z,11.77
2022-08-16T06:45:43.484Z,11.90
2022-08-16T06:48:32.837Z,12.05
2022-08-16T06:51:05.866Z,12.18
2022-08-16T06:53:36.825Z,11.90
2022-08-16T06:56:13.927Z,12.27
2022-08-16T07:01:44.516Z,11.55
2022-08-16T07:04:32.506Z,11.82
2022-08-16T07:07:09.610Z,11.50
2022-08-16T07:09:40.589Z,11.82
2022-08-16T07:14:47.920Z,12.57
2022-08-16T07:17:21.664Z,11.50
2022-08-16T07:20:02.707Z,10.70
2022-08-16T07:22:53.119Z,11.52
2022-08-16T07:25:42.789Z,11.20
2022-08-16T07:28:20.751Z,10.32
2022-08-16T07:30:54.182Z,10.60
2022-08-16T07:33:53.376Z,10.48
2022-08-16T07:36:32.340Z,9.90
2022-08-16T07:39:01.306Z,9.10
2022-08-16T07:41:35.914Z,9.80
2022-08-16T07:44:16.366Z,9.52
2022-08-16T07:46:46.135Z,9.02
2022-08-16T07:49:24.131Z,9.13
2022-08-16T07:51:54.302Z,8.27
2022-08-16T07:54:32.378Z,8.32
2022-08-16T07:57:11.580Z,7.57
2022-08-16T07:59:46.352Z,6.90
2022-08-16T08:02:20.035Z,8.43
2022-08-16T08:04:54.021Z,8.13
2022-08-16T08:07:29.349Z,8.77
2022-08-16T08:10:04.660Z,8.63
2022-08-16T08:12:47.596Z,7.82
2022-08-16T08:15:25.154Z,12.75
2022-08-16T08:17:54.717Z,7.70
2022-08-16T08:20:30.594Z,7.45
2022-08-16T08:23:03.393Z,8.30
2022-08-16T08:25:55.060Z,8.07
2022-08-16T08:28:27.139Z,7.32
2022-08-16T08:31:04.103Z,8.20
2022-08-16T08:33:37.661Z,8.52
2022-08-16T08:36:21.784Z,8.20
2022-08-16T08:38:53.534Z,8.88
2022-08-16T08:41:29.006Z,8.85
2022-08-16T08:44:00.339Z,8.35
2022-08-16T08:46:35.626Z,9.83
2022-08-16T08:49:07.959Z,8.95
2022-08-16T08:51:44.623Z,10.07
2022-08-16T08:54:20.557Z,9.02
2022-08-16T08:56:53.559Z,9.65
2022-08-16T08:59:51.625Z,8.98
2022-08-16T09:02:23.724Z,9.80
2022-08-16T09:04:57.778Z,9.10
2022-08-16T09:07:27.684Z,8.93
2022-08-16T09:10:06.447Z,8.43
2022-08-16T09:12:38.334Z,8.10
2022-08-16T09:15:13.575Z,7.90
2022-08-16T09:17:49.101Z,7.53
2022-08-16T09:20:23.427Z,7.45
2022-08-16T09:22:52.964Z,7.95
2022-08-16T09:25:33.689Z,7.30
2022-08-16T09:28:09.477Z,8.35
2022-08-16T09:30:59.480Z,8.80
2022-08-16T09:33:32.475Z,8.00
2022-08-16T09:36:12.321Z,8.23
2022-08-16T09:38:59.902Z,8.35
2022-08-16T09:41:28.921Z,8.70
2022-08-16T09:43:59.210Z,8.35
2022-08-16T09:46:45.045Z,8.35
2022-08-16T09:49:20.257Z,7.57
2022-08-16T09:51:55.616Z,7.43
2022-08-16T09:54:32.315Z,7.53
2022-08-16T09:57:02.151Z,8.20
2022-08-16T09:59:38.175Z,7.32
2022-08-16T10:02:27.434Z,8.23
2022-08-16T10:04:58.923Z,8.35
2022-08-16T10:07:38.347Z,7.97
2022-08-16T10:10:18.930Z,7.43
2022-08-16T10:13:16.625Z,7.30
2022-08-16T10:15:55.613Z,7.47
2022-08-16T10:18:56.308Z,5.60
2022-08-16T10:21:18.077Z,7.00
2022-08-16T10:23:48.624Z,7.38
2022-08-16T10:27:18.489Z,8.13
2022-08-16T10:29:06.919Z,8.38
2022-08-16T10:31:44.653Z,6.72
2022-08-16T10:34:31.172Z,7.57
2022-08-16T10:37:02.853Z,8.20
2022-08-16T10:39:41.865Z,8.45
2022-08-16T10:42:13.221Z,7.82
2022-08-16T10:44:42.728Z,7.40
2022-08-16T10:47:22.361Z,6.55
2022-08-16T10:49:51.261Z,8.00
2022-08-16T10:52:21.410Z,7.10
2022-08-16T10:55:40.656Z,7.88
2022-08-16T10:57:42.544Z,7.65
2022-08-16T11:00:21.342Z,8.70
2022-08-16T11:03:37.680Z,7.93
2022-08-16T11:05:59.464Z,8.30
2022-08-16T11:08:35.251Z,7.88
2022-08-16T11:11:15.517Z,8.50
2022-08-16T11:13:58.644Z,8.43
2022-08-16T11:19:18.394Z,8.15
2022-08-16T11:24:44.692Z,7.80
2022-08-16T11:27:21.227Z,7.47
2022-08-16T11:29:55.200Z,8.40
2022-08-16T11:32:31.012Z,8.25
2022-08-16T11:35:11.063Z,7.15
2022-08-16T11:40:37.934Z,8.45
2022-08-16T11:43:07.774Z,7.32
2022-08-16T11:45:40.577Z,7.72
2022-08-16T11:48:11.660Z,7.13
2022-08-16T11:50:40.276Z,7.75
2022-08-16T11:53:09.413Z,7.20
2022-08-16T11:55:39.798Z,7.23
2022-08-16T11:58:14.348Z,8.15
2022-08-16T12:00:51.277Z,7.95
2022-08-16T12:03:34.744Z,8.02
2022-08-16T12:06:11.046Z,7.82
2022-08-16T12:09:01.807Z,7.93
2022-08-16T12:11:33.315Z,8.43
2022-08-16T12:14:04.503Z,9.05
2022-08-16T12:16:34.130Z,8.88
2022-08-16T12:19:04.545Z,8.43
2022-08-16T12:21:36.034Z,8.00
2022-08-16T12:24:23.922Z,9.13
2022-08-16T12:26:54.708Z,9.20
2022-08-16T12:29:25.921Z,7.47
2022-08-16T12:32:00.913Z,8.07
2022-08-16T12:34:50.843Z,8.15
2022-08-16T12:37:24.462Z,7.47
2022-08-16T12:39:55.156Z,8.48
2022-08-16T12:42:34.364Z,8.20
2022-08-16T12:45:05.320Z,8.20
2022-08-16T12:47:51.494Z,7.57
2022-08-16T12:50:32.954Z,6.95
2022-08-16T12:53:03.535Z,7.60
2022-08-16T12:55:33.534Z,7.50
2022-08-16T12:58:13.757Z,8.07
2022-08-16T13:01:01.598Z,7.15
2022-08-16T13:03:32.725Z,7.88
2022-08-16T13:06:09.497Z,9.02
2022-08-16T13:08:41.405Z,8.50
2022-08-16T13:11:14.593Z,8.40
2022-08-16T13:13:47.597Z,9.50
2022-08-16T13:16:27.325Z,8.57
2022-08-16T13:18:56.204Z,7.65
2022-08-16T13:21:25.054Z,7.53
2022-08-16T13:23:55.973Z,9.32
2022-08-16T13:26:26.182Z,8.77
2022-08-16T13:28:57.021Z,10.35
2022-08-16T13:31:26.945Z,9.57
2022-08-16T13:33:58.917Z,9.50
2022-08-16T13:39:18.179Z,11.07
2022-08-16T13:41:53.813Z,11.30
2022-08-16T13:44:36.047Z,9.95
2022-08-16T13:47:13.117Z,9.95
2022-08-16T13:49:43.324Z,9.70
2022-08-16T13:52:12.536Z,10.30
2022-08-16T13:54:41.404Z,7.88
2022-08-16T13:57:11.592Z,7.85
2022-08-16T13:59:43.432Z,8.63
2022-08-16T14:02:15.273Z,7.28
2022-08-16T14:04:46.815Z,6.05
2022-08-16T14:07:31.985Z,21.00
2022-08-16T14:10:04.394Z,6.07
2022-08-16T14:15:03.787Z,5.25
2022-08-16T14:18:15.501Z,3.90
2022-08-16T14:22:52.520Z,4.05
2022-08-16T14:25:24.736Z,4.20
2022-08-16T14:27:55.973Z,3.65
2022-08-16T14:30:26.947Z,3.85
2022-08-16T14:32:56.249Z,4.90
2022-08-16T14:35:36.864Z,4.65
2022-08-16T14:38:18.145Z,4.25
2022-08-16T14:40:52.746Z,4.40
2022-08-16T14:43:25.005Z,4.13
2022-08-16T14:45:55.805Z,4.38
2022-08-16T14:48:25.794Z,4.57
2022-08-16T14:50:56.121Z,4.25
2022-08-16T14:53:26.431Z,3.65
2022-08-16T14:55:55.279Z,3.38
2022-08-16T14:58:34.650Z,3.75
2022-08-16T15:01:09.842Z,3.85
2022-08-16T15:03:42.323Z,4.78
2022-08-16T15:06:14.529Z,3.88
2022-08-16T15:08:45.239Z,3.78
2022-08-16T15:11:14.878Z,4.40
2022-08-16T15:13:43.615Z,4.10
2022-08-16T15:16:13.931Z,5.10
2022-08-16T15:18:42.941Z,4.60
2022-08-16T15:21:15.592Z,4.43
2022-08-16T15:23:44.467Z,5.35
2022-08-16T15:26:18.848Z,5.93
2022-08-16T15:29:02.449Z,4.95
2022-08-16T15:31:34.308Z,5.32
2022-08-16T15:34:04.422Z,5.93
2022-08-16T15:36:33.160Z,5.82
2022-08-16T15:39:27.969Z,4.88
2022-08-16T15:44:50.962Z,7.03
2022-08-16T15:47:26.307Z,5.50
2022-08-16T15:49:56.225Z,5.55
2022-08-16T15:52:29.941Z,5.20
2022-08-16T15:55:13.403Z,7.25
2022-08-16T15:57:51.335Z,4.97
2022-08-16T16:00:21.289Z,5.95
2022-08-16T16:03:01.471Z,6.70
2022-08-16T16:05:30.867Z,5.90
2022-08-16T16:08:11.212Z,6.20
2022-08-16T16:10:41.673Z,5.60
2022-08-16T16:13:11.987Z,5.60
2022-08-16T16:15:44.124Z,6.05
2022-08-16T16:18:14.894Z,5.45
2022-08-16T16:20:47.701Z,6.53
2022-08-16T16:23:18.241Z,5.70
2022-08-16T16:25:48.803Z,7.22
2022-08-16T16:29:06.612Z,6.60
2022-08-16T16:31:13.454Z,7.72
2022-08-16T16:33:45.488Z,7.45
2022-08-16T16:36:17.495Z,7.18
2022-08-16T16:38:47.696Z,7.38
2022-08-16T16:41:20.638Z,7.88
2022-08-16T16:43:53.386Z,7.43
2022-08-16T16:46:43.076Z,7.88
2022-08-16T16:49:15.722Z,8.10
2022-08-16T16:51:49.789Z,8.63
2022-08-16T16:54:28.005Z,8.00
2022-08-16T16:56:58.268Z,8.85
2022-08-16T16:59:28.001Z,8.38
2022-08-16T17:02:38.769Z,9.02
2022-08-16T17:04:49.673Z,9.13
2022-08-16T17:07:24.084Z,9.63
2022-08-16T17:09:53.753Z,10.05
2022-08-16T17:12:24.936Z,9.05
2022-08-16T17:15:12.777Z,9.68
2022-08-16T17:18:00.175Z,9.48
2022-08-16T17:20:30.950Z,9.57
2022-08-16T17:22:59.966Z,10.73
2022-08-16T17:25:36.484Z,10.25
2022-08-16T17:28:58.055Z,10.00
2022-08-16T17:30:54.917Z,11.82
2022-08-16T17:33:24.221Z,11.90
2022-08-16T17:35:55.650Z,10.88
2022-08-16T17:39:28.691Z,11.73
2022-08-16T17:41:17.029Z,10.88
2022-08-16T17:43:46.309Z,11.82
2022-08-16T17:46:50.466Z,11.30
2022-08-16T17:49:05.410Z,9.77
2022-08-16T17:51:35.566Z,10.57
2022-08-16T17:56:33.377Z,10.68
2022-08-16T17:59:02.771Z,11.48
2022-08-16T18:01:32.426Z,10.23
2022-08-16T18:04:07.678Z,10.60
2022-08-16T18:06:40.348Z,10.05
2022-08-16T18:09:10.362Z,10.23
2022-08-16T18:14:11.995Z,9.80
2022-08-16T18:16:41.474Z,11.52
2022-08-16T18:19:11.261Z,10.98
2022-08-16T18:21:59.726Z,11.02
2022-08-16T18:24:28.895Z,11.73
2022-08-16T18:27:21.895Z,10.45
2022-08-16T18:29:48.201Z,11.90
2022-08-16T18:32:22.023Z,11.20
2022-08-16T18:34:54.413Z,12.07
2022-08-16T18:37:25.357Z,11.23
2022-08-16T18:39:54.302Z,10.68
2022-08-16T18:42:25.453Z,10.32
2022-08-16T18:44:54.123Z,11.55
2022-08-16T18:47:22.785Z,11.73
2022-08-16T18:49:51.201Z,11.00
2022-08-16T18:52:25.083Z,10.63
2022-08-16T18:55:02.942Z,10.25
2022-08-16T18:57:43.601Z,10.40
2022-08-16T19:00:14.546Z,10.27
2022-08-16T19:02:58.826Z,10.35
2022-08-16T19:05:30.954Z,11.15
2022-08-16T19:07:59.606Z,10.75
2022-08-16T19:10:29.860Z,10.57
2022-08-16T19:15:29.105Z,10.32
2022-08-16T19:17:57.964Z,10.32
2022-08-16T19:20:28.259Z,12.05
2022-08-16T19:23:10.134Z,11.65
2022-08-16T19:25:46.923Z,11.98
2022-08-16T19:28:33.307Z,11.73
2022-08-16T19:31:10.896Z,10.18
2022-08-16T19:33:39.980Z,11.32
2022-08-16T19:36:11.649Z,13.45
2022-08-16T19:38:57.990Z,12.07
2022-08-16T19:41:36.545Z,35.88
2022-08-16T19:44:06.291Z,13.63
2022-08-16T19:46:35.144Z,26.93
2022-08-16T19:49:04.151Z,13.68
2022-08-16T19:51:32.927Z,12.65
2022-08-16T19:54:01.760Z,14.68
2022-08-16T19:56:30.563Z,14.10
2022-08-16T19:59:19.315Z,20.70
2022-08-16T20:01:51.189Z,16.08
2022-08-16T20:04:20.905Z,15.05
2022-08-16T20:06:49.640Z,13.18
2022-08-16T20:09:18.647Z,14.00
2022-08-16T20:11:47.944Z,13.90
2022-08-16T20:14:25.736Z,14.65
2022-08-16T20:16:56.339Z,14.90
2022-08-16T20:19:27.492Z,15.18
2022-08-16T20:21:57.507Z,13.27
2022-08-16T20:24:36.001Z,14.70
2022-08-16T20:27:06.348Z,14.35
2022-08-16T20:29:37.555Z,14.40
2022-08-16T20:32:07.687Z,13.98
2022-08-16T20:34:36.466Z,13.57
2022-08-16T20:37:06.550Z,15.88
2022-08-16T20:39:35.429Z,13.93
2022-08-16T20:42:04.513Z,14.63
2022-08-16T20:44:33.565Z,13.90
2022-08-16T20:47:03.966Z,13.73
2022-08-16T20:49:32.667Z,14.20
2022-08-16T20:52:01.616Z,14.43
2022-08-16T20:54:30.825Z,14.00
2022-08-16T20:56:59.641Z,14.63
2022-08-16T20:59:28.693Z,16.17
2022-08-16T21:01:57.703Z,14.95
2022-08-16T21:04:29.035Z,14.43
2022-08-16T21:06:59.467Z,14.55
2022-08-16T21:09:31.514Z,14.27
2022-08-16T21:12:02.289Z,14.25
2022-08-16T21:14:34.307Z,14.82
2022-08-16T21:17:04.592Z,15.40
2022-08-16T21:19:35.378Z,14.18
2022-08-16T21:22:13.275Z,14.80
2022-08-16T21:24:46.268Z,16.58
2022-08-16T21:27:17.422Z,15.95
2022-08-16T21:29:47.193Z,15.95
2022-08-16T21:32:34.836Z,16.67
2022-08-16T21:35:11.491Z,15.50
2022-08-16T21:37:40.499Z,18.20
2022-08-16T21:40:11.218Z,18.05
2022-08-16T21:42:42.022Z,15.93
2022-08-16T21:45:14.606Z,16.48
2022-08-16T21:47:44.149Z,16.58
2022-08-16T21:50:15.424Z,16.63
2022-08-16T21:52:43.832Z,15.73
2022-08-16T21:55:12.699Z,16.17
2022-08-16T21:57:41.642Z,16.65
2022-08-16T22:00:13.955Z,15.13
2022-08-16T22:02:45.614Z,15.48
2022-08-16T22:05:19.122Z,17.08
2022-08-16T22:07:47.494Z,17.92
2022-08-16T22:11:07.442Z,16.67
2022-08-16T22:13:05.842Z,16.80
2022-08-16T22:15:34.569Z,16.47
2022-08-16T22:18:03.344Z,17.05
2022-08-16T22:20:33.612Z,18.55
2022-08-16T22:25:34.216Z,17.67
2022-08-16T22:28:02.997Z,17.83
2022-08-16T22:30:31.996Z,19.25
2022-08-16T22:33:01.819Z,17.92
2022-08-16T22:35:30.506Z,16.42
2022-08-16T22:38:50.273Z,16.88
2022-08-16T22:40:49.675Z,18.42
2022-08-16T22:43:18.816Z,17.88
2022-08-16T22:45:48.271Z,18.42
2022-08-16T22:50:47.284Z,17.48
2022-08-16T22:53:18.464Z,19.60
2022-08-16T22:55:47.260Z,18.70
2022-08-16T22:58:16.016Z,19.67
2022-08-16T23:00:45.210Z,19.15
2022-08-16T23:03:16.505Z,19.00
2022-08-16T23:05:49.298Z,19.35
2022-08-16T23:08:33.684Z,17.95
2022-08-16T23:11:09.284Z,18.13
2022-08-16T23:13:38.347Z,18.48
2022-08-16T23:16:28.737Z,18.13
2022-08-16T23:21:32.508Z,18.70
2022-08-16T23:24:03.033Z,19.25
2022-08-16T23:26:36.376Z,19.17
2022-08-16T23:29:24.398Z,19.52
2022-08-16T23:31:59.453Z,17.58
2022-08-16T23:34:29.515Z,18.17
2022-08-16T23:39:28.518Z,17.08
2022-08-16T23:44:57.260Z,17.60
2022-08-16T23:47:14.247Z,19.38
2022-08-16T23:49:57.594Z,18.58
2022-08-16T23:52:39.373Z,20.02
2022-08-16T23:55:21.434Z,18.80
2022-08-16T23:57:50.917Z,19.75
